Time;durP1;ratioP1;P1;durP2;ratioP2;P2;SDS_P1;SDS_P2;PMS_P1;PMS_P2;Temp;Humidity;BMP_temperature;BMP_pressure;BME280_temperature;BME280_humidity;BME280_pressure;Samples;Min_cycle;Max_cycle;Signal;HPM_P1;HPM_P2
2023/09/05 03:02:13;;;;;;;;;;;22.60;57.30;;;;;;5063748;23;46513;-82
2023/09/05 03:04:39;;;;;;;;;;;22.60;57.30;;;;;;4862871;28;45432;-83
2023/09/05 03:07:05;;;;;;;;;;;22.50;57.30;;;;;;4888727;28;44662;-82
2023/09/05 03:09:32;;;;;;;;;;;22.60;57.30;;;;;;4879599;28;45772;-82
2023/09/05 03:11:58;;;;;;;;;;;22.50;57.30;;;;;;4907871;28;46501;-82
2023/09/05 03:14:23;;;;;;;;;;;22.60;57.30;;;;;;4867945;28;45398;-83
2023/09/05 03:16:49;;;;;;;;;;;22.50;57.30;;;;;;4870386;28;45440;-83
2023/09/05 03:19:15;;;;;;;;;;;22.60;57.30;;;;;;4912014;28;45025;-82
2023/09/05 03:21:40;;;;;;;;;;;22.60;57.30;;;;;;4880061;28;46003;-82
2023/09/05 03:24:06;;;;;;;;;;;22.60;57.30;;;;;;4890149;28;45259;-83
2023/09/05 03:26:31;;;;;;;;;;;22.60;57.30;;;;;;4865489;28;45568;-83
2023/09/05 03:28:59;;;;;;;;;;;22.50;57.30;;;;;;4894902;28;45300;-82
2023/09/05 03:31:28;;;;;;;;;;;22.60;57.30;;;;;;4890832;28;46215;-82
2023/09/05 03:33:55;;;;;;;;;;;22.50;57.20;;;;;;4876236;28;45606;-83
2023/09/05 03:36:21;;;;;;;;;;;22.60;57.30;;;;;;4894188;28;45074;-83
2023/09/05 03:38:47;;;;;;;;;;;22.60;57.30;;;;;;4882287;28;45411;-83
2023/09/05 03:41:13;;;;;;;;;;;22.60;57.20;;;;;;4874169;28;46516;-83
2023/09/05 03:43:38;;;;;;;;;;;22.60;57.20;;;;;;4889972;28;45503;-83
2023/09/05 03:46:04;;;;;;;;;;;22.60;57.30;;;;;;4872865;28;45962;-82
2023/09/05 03:48:30;;;;;;;;;;;22.60;57.20;;;;;;4893121;28;45417;-82
2023/09/05 03:50:56;;;;;;;;;;;22.50;57.20;;;;;;4888559;28;45947;-83
2023/09/05 03:53:22;;;;;;;;;;;22.60;57.20;;;;;;4881326;28;44720;-83
2023/09/05 03:55:48;;;;;;;;;;;22.60;57.20;;;;;;4886557;28;45765;-82
2023/09/05 03:58:14;;;;;;;;;;;22.60;57.20;;;;;;4895876;28;45506;-82
2023/09/05 04:00:40;;;;;;;;;;;22.60;57.20;;;;;;4873045;28;47195;-81
2023/09/05 04:03:05;;;;;;;;;;;22.60;57.20;;;;;;4881361;28;45817;-83
2023/09/05 04:05:34;;;;;;;;;;;22.50;57.20;;;;;;4874899;28;45851;-83
2023/09/05 04:08:00;;;;;;;;;;;22.50;57.20;;;;;;4893694;28;45308;-83
2023/09/05 04:10:26;;;;;;;;;;;22.60;57.20;;;;;;4885949;28;46393;-83
2023/09/05 04:12:52;;;;;;;;;;;22.50;57.10;;;;;;4887822;28;45619;-82
2023/09/05 04:15:20;;;;;;;;;;;22.50;57.10;;;;;;4886471;28;46089;-82
2023/09/05 04:17:47;;;;;;;;;;;22.50;57.10;;;;;;4889148;28;44942;-82
2023/09/05 04:20:13;;;;;;;;;;;22.50;57.10;;;;;;4879131;28;46581;-80
2023/09/05 04:22:38;;;;;;;;;;;22.50;57.20;;;;;;4872415;28;45488;-82
2023/09/05 04:25:04;;;;;;;;;;;22.50;57.10;;;;;;4893888;28;45123;-82
2023/09/05 04:27:30;;;;;;;;;;;22.50;57.10;;;;;;4860468;28;45185;-82
2023/09/05 04:29:55;;;;;;;;;;;22.50;57.10;;;;;;4885125;28;46989;-82
2023/09/05 04:32:28;;;;;;;;;;;22.50;57.10;;;;;;4852368;28;45293;-82
2023/09/05 04:34:57;;;;;;;;;;;22.50;57.10;;;;;;4885794;28;45474;-82
2023/09/05 04:37:23;;;;;;;;;;;22.50;57.10;;;;;;4861719;28;45579;-82
2023/09/05 04:39:49;;;;;;;;;;;22.50;57.10;;;;;;4876674;28;46713;-82
2023/09/05 04:42:14;;;;;;;;;;;22.50;57.10;;;;;;4858580;28;46235;-82
2023/09/05 04:44:40;;;;;;;;;;;22.50;57.10;;;;;;4867158;28;44906;-82
2023/09/05 04:47:21;;;;;;;;;;;22.50;57.10;;;;;;4865698;28;45828;-82
2023/09/05 04:49:50;;;;;;;;;;;22.50;57.10;;;;;;4891809;28;46822;-84
2023/09/05 04:52:16;;;;;;;;;;;22.50;57.10;;;;;;4855369;28;45123;-82
2023/09/05 04:54:41;;;;;;;;;;;22.50;57.10;;;;;;4860028;28;45190;-82
2023/09/05 04:57:10;;;;;;;;;;;22.50;57.10;;;;;;4888637;28;45552;-82
2023/09/05 04:59:36;;;;;;;;;;;22.50;57.10;;;;;;4858764;28;46334;-82
2023/09/05 05:02:03;;;;;;;;;;;22.50;57.10;;;;;;4872468;28;45339;-82
2023/09/05 05:04:29;;;;;;;;;;;22.50;57.00;;;;;;4880323;28;45189;-83
2023/09/05 05:06:54;;;;;;;;;;;22.50;57.10;;;;;;4891973;28;45114;-82
2023/09/05 05:09:20;;;;;;;;;;;22.50;57.10;;;;;;4882884;28;47255;-82
2023/09/05 05:11:46;;;;;;;;;;;22.50;57.00;;;;;;4879319;28;45355;-82
2023/09/05 05:14:12;;;;;;;;;;;22.50;57.00;;;;;;4897744;28;45570;-83
2023/09/05 05:16:37;;;;;;;;;;;22.50;57.00;;;;;;4897866;28;45337;-83
2023/09/05 05:19:04;;;;;;;;;;;22.50;57.00;;;;;;4898784;28;45378;-83
2023/09/05 05:21:30;;;;;;;;;;;22.50;57.00;;;;;;4890904;28;45540;-83
2023/09/05 05:23:55;;;;;;;;;;;22.50;57.00;;;;;;4912106;28;45454;-82
2023/09/05 05:26:23;;;;;;;;;;;22.50;57.10;;;;;;4884216;28;45487;-82
2023/09/05 05:28:49;;;;;;;;;;;22.50;57.00;;;;;;4879904;28;45588;-83
2023/09/05 05:31:14;;;;;;;;;;;22.50;57.10;;;;;;4892236;28;45209;-83
2023/09/05 05:33:40;;;;;;;;;;;22.50;57.00;;;;;;4896350;28;45641;-83
2023/09/05 05:36:06;;;;;;;;;;;22.50;57.10;;;;;;4891199;28;45739;-83
2023/09/05 05:38:31;;;;;;;;;;;22.50;57.00;;;;;;4878045;28;47054;-82
2023/09/05 05:40:58;;;;;;;;;;;22.50;57.00;;;;;;4889279;28;45490;-82
2023/09/05 05:43:27;;;;;;;;;;;22.50;57.00;;;;;;4885041;28;45196;-83
2023/09/05 05:45:52;;;;;;;;;;;22.50;57.00;;;;;;4887047;28;45177;-84
2023/09/05 05:48:18;;;;;;;;;;;22.50;57.00;;;;;;4863520;28;46202;-84
2023/09/05 05:50:44;;;;;;;;;;;22.50;57.00;;;;;;4892460;28;45079;-83
2023/09/05 05:53:09;;;;;;;;;;;22.50;57.00;;;;;;4898880;28;45233;-82
2023/09/05 05:55:35;;;;;;;;;;;22.50;57.00;;;;;;4880974;28;45156;-83
2023/09/05 05:58:01;;;;;;;;;;;22.50;57.00;;;;;;4885031;28;45219;-83
2023/09/05 06:00:29;;;;;;;;;;;22.50;57.00;;;;;;4878766;28;45563;-81
2023/09/05 06:02:55;;;;;;;;;;;22.50;57.00;;;;;;4893821;28;45397;-83
2023/09/05 06:05:21;;;;;;;;;;;22.50;57.00;;;;;;4894861;28;45248;-84
2023/09/05 06:07:47;;;;;;;;;;;22.50;57.00;;;;;;4865053;28;47361;-83
2023/09/05 06:10:12;;;;;;;;;;;22.50;57.00;;;;;;4882108;28;45019;-80
2023/09/05 06:12:39;;;;;;;;;;;22.50;57.00;;;;;;4896293;28;45484;-84
2023/09/05 06:15:04;;;;;;;;;;;22.40;56.90;;;;;;4891221;28;45289;-82
2023/09/05 06:17:30;;;;;;;;;;;22.50;57.00;;;;;;4861542;28;46238;-83
2023/09/05 06:19:55;;;;;;;;;;;22.50;57.00;;;;;;4878384;28;45059;-83
2023/09/05 06:22:21;;;;;;;;;;;22.50;57.00;;;;;;4879327;28;45851;-84
2023/09/05 06:24:47;;;;;;;;;;;22.50;57.00;;;;;;4898397;28;45514;-83
2023/09/05 06:27:13;;;;;;;;;;;22.50;57.00;;;;;;4879408;28;46129;-83
2023/09/05 06:29:39;;;;;;;;;;;22.40;56.90;;;;;;4883987;28;45252;-83
2023/09/05 06:32:05;;;;;;;;;;;22.50;57.00;;;;;;4858656;28;45476;-83
2023/09/05 06:34:32;;;;;;;;;;;22.40;56.90;;;;;;4881361;28;45696;-84
2023/09/05 06:36:57;;;;;;;;;;;22.50;56.90;;;;;;4881796;28;45966;-83
2023/09/05 06:39:23;;;;;;;;;;;22.50;56.90;;;;;;4868041;28;45548;-83
2023/09/05 06:41:49;;;;;;;;;;;22.50;56.90;;;;;;4898160;28;45041;-83
2023/09/05 06:44:15;;;;;;;;;;;22.50;56.90;;;;;;4898571;28;45405;-83
2023/09/05 06:46:41;;;;;;;;;;;22.40;56.90;;;;;;4879917;28;47106;-83
2023/09/05 06:49:06;;;;;;;;;;;22.40;56.90;;;;;;4898545;28;44988;-81
2023/09/05 06:51:32;;;;;;;;;;;22.50;56.90;;;;;;4882939;28;45538;-84
2023/09/05 06:54:01;;;;;;;;;;;22.50;56.90;;;;;;4899571;28;45480;-83
2023/09/05 06:56:26;;;;;;;;;;;22.40;56.80;;;;;;4853362;28;46795;-83
2023/09/05 06:58:52;;;;;;;;;;;22.40;56.80;;;;;;4910842;28;45444;-84
2023/09/05 07:01:18;;;;;;;;;;;22.40;56.80;;;;;;4870307;28;46639;-84
2023/09/05 07:03:44;;;;;;;;;;;22.50;56.90;;;;;;4879300;29;44935;-84
2023/09/05 07:06:10;;;;;;;;;;;22.40;56.80;;;;;;4905305;28;45853;-82
2023/09/05 07:08:36;;;;;;;;;;;22.40;56.80;;;;;;4867941;29;45433;-83
2023/09/05 07:11:03;;;;;;;;;;;22.50;56.90;;;;;;4892628;28;45144;-83
2023/09/05 07:13:29;;;;;;;;;;;22.40;56.80;;;;;;4899728;28;44972;-84
2023/09/05 07:15:57;;;;;;;;;;;22.40;56.80;;;;;;4871526;28;45513;-83
2023/09/05 07:18:24;;;;;;;;;;;22.40;56.80;;;;;;4889193;28;45271;-83
2023/09/05 07:23:53;;;;;;;;;;;22.50;56.90;;;;;;4893135;28;44707;-83
2023/09/05 07:26:18;;;;;;;;;;;22.40;56.80;;;;;;4877383;28;45228;-83
2023/09/05 07:28:46;;;;;;;;;;;22.40;56.80;;;;;;4862891;29;44801;-83
2023/09/05 07:31:14;;;;;;;;;;;22.40;56.80;;;;;;4875027;28;45716;-83
2023/09/05 07:33:40;;;;;;;;;;;22.40;56.80;;;;;;4864626;28;45513;-84
2023/09/05 07:36:06;;;;;;;;;;;22.40;56.80;;;;;;4889677;28;46195;-83
2023/09/05 07:38:32;;;;;;;;;;;22.40;56.80;;;;;;4887855;28;45450;-83
2023/09/05 07:41:04;;;;;;;;;;;22.40;56.80;;;;;;4880450;28;45253;-84
2023/09/05 07:43:30;;;;;;;;;;;22.50;56.90;;;;;;4866640;28;44731;-84
2023/09/05 07:45:55;;;;;;;;;;;22.40;56.80;;;;;;4855698;23;46278;-50
2023/09/05 07:48:21;;;;;;;;;;;22.40;56.80;;;;;;4862137;29;45615;-53
2023/09/05 07:50:49;;;;;;;;;;;22.40;56.80;;;;;;4855678;29;45377;-48
2023/09/05 07:53:15;;;;;;;;;;;22.50;56.80;;;;;;4851447;29;46064;-51
2023/09/05 07:55:40;;;;;;;;;;;22.40;56.80;;;;;;4848702;29;46858;-52
2023/09/05 07:58:05;;;;;;;;;;;22.50;56.80;;;;;;4849735;29;45639;-54
2023/09/05 08:00:31;;;;;;;;;;;22.40;56.70;;;;;;4840761;29;45406;-49
2023/09/05 08:12:13;;;;;;;;;;;22.50;56.80;;;;;;4813013;29;45389;-54
2023/09/05 08:14:38;;;;;;;;;;;22.50;56.80;;;;;;4803835;29;45534;-51
2023/09/05 08:17:04;;;;;;;;;;;22.50;56.80;;;;;;4837639;29;45558;-52
2023/09/05 08:25:56;;;;;;;;;;;22.40;56.70;;;;;;4840429;29;45422;-53
2023/09/05 08:28:21;;;;;;;;;;;22.50;57.20;;;;;;4854242;29;46525;-49
2023/09/05 08:30:47;;;;;;;;;;;22.40;56.70;;;;;;4821570;29;45789;-50
2023/09/05 08:33:12;;;;;;;;;;;22.50;56.80;;;;;;4854835;29;45679;-52
2023/09/05 08:35:38;;;;;;;;;;;22.50;56.80;;;;;;4847476;29;45106;-50
2023/09/05 08:38:05;;;;;;;;;;;22.50;56.70;;;;;;4863516;29;45996;-51
2023/09/05 08:40:34;;;;;;;;;;;22.50;56.70;;;;;;4851007;29;45215;-52
2023/09/05 08:42:59;;;;;;;;;;;22.50;56.70;;;;;;4847207;29;45196;-53
2023/09/05 08:45:25;;;;;;;;;;;22.50;56.70;;;;;;4847446;29;45375;-53
2023/09/05 08:47:52;;;;;;;;;;;22.50;56.80;;;;;;4835788;29;45275;-50
2023/09/05 08:50:17;;;;;;;;;;;22.50;56.70;;;;;;4817474;29;45630;-50
2023/09/05 08:52:43;;;;;;;;;;;22.50;56.70;;;;;;4826645;29;45397;-50
2023/09/05 08:55:09;;;;;;;;;;;22.50;56.70;;;;;;4836444;29;45269;-53
2023/09/05 08:57:38;;;;;;;;;;;22.50;56.80;;;;;;4829640;29;45490;-51
2023/09/05 09:00:10;;;;;;;;;;;22.50;56.70;;;;;;4832935;29;45301;-53
2023/09/05 09:02:36;;;;;;;;;;;22.50;56.70;;;;;;4817823;29;44759;-53
2023/09/05 09:05:01;;;;;;;;;;;22.50;56.70;;;;;;4836940;29;45237;-49
2023/09/05 09:07:27;;;;;;;;;;;22.50;56.70;;;;;;4811473;29;46667;-54
2023/09/05 09:09:53;;;;;;;;;;;22.50;56.70;;;;;;4839372;29;45529;-50
2023/09/05 09:12:22;;;;;;;;;;;22.50;56.70;;;;;;4822749;29;45248;-51
2023/09/05 09:14:48;;;;;;;;;;;22.50;56.70;;;;;;4821706;29;47288;-52
2023/09/05 09:17:13;;;;;;;;;;;22.50;56.70;;;;;;4803830;29;45368;-50
2023/09/05 09:19:38;;;;;;;;;;;22.50;56.70;;;;;;4824092;29;45709;-51
2023/09/05 09:22:05;;;;;;;;;;;22.50;56.70;;;;;;4811919;29;45750;-53
2023/09/05 09:24:32;;;;;;;;;;;22.50;56.70;;;;;;4838052;29;45246;-49
2023/09/05 09:26:57;;;;;;;;;;;22.50;56.70;;;;;;4826036;29;45977;-49
2023/09/05 09:29:23;;;;;;;;;;;22.50;56.70;;;;;;4842835;29;45761;-53
2023/09/05 09:31:48;;;;;;;;;;;22.50;56.70;;;;;;4819394;29;45593;-50
2023/09/05 09:34:18;;;;;;;;;;;22.50;56.70;;;;;;4837176;29;45129;-50
2023/09/05 09:36:44;;;;;;;;;;;22.50;56.70;;;;;;4826355;29;45666;-51
2023/09/05 09:39:10;;;;;;;;;;;22.50;56.70;;;;;;4823430;29;45315;-50
2023/09/05 09:41:43;;;;;;;;;;;22.50;56.70;;;;;;4837179;29;45450;-52
2023/09/05 09:44:08;;;;;;;;;;;22.50;56.70;;;;;;4836209;29;45547;-53
2023/09/05 09:46:34;;;;;;;;;;;22.50;56.70;;;;;;4820805;29;45819;-51
2023/09/05 09:48:59;;;;;;;;;;;22.50;56.70;;;;;;4854156;29;45025;-50
2023/09/05 09:51:25;;;;;;;;;;;22.50;56.70;;;;;;4831316;29;45655;-54
2023/09/05 09:53:50;;;;;;;;;;;22.50;56.80;;;;;;4832548;29;45219;-51
2023/09/05 09:56:18;;;;;;;;;;;22.50;56.70;;;;;;4845881;29;44994;-53
2023/09/05 09:58:45;;;;;;;;;;;22.50;56.70;;;;;;4824946;29;48289;-52
2023/09/05 10:01:11;;;;;;;;;;;22.50;56.70;;;;;;4837673;29;45375;-50
2023/09/05 10:03:40;;;;;;;;;;;22.50;56.70;;;;;;4856691;29;45041;-50
2023/09/05 10:06:06;;;;;;;;;;;22.50;56.70;;;;;;4829735;29;45362;-52
2023/09/05 10:08:32;;;;;;;;;;;22.50;56.70;;;;;;4860373;29;45501;-51
2023/09/05 10:10:58;;;;;;;;;;;22.50;56.70;;;;;;4844952;29;45216;-51
2023/09/05 10:13:27;;;;;;;;;;;22.50;56.70;;;;;;4858025;29;45667;-52
2023/09/05 10:15:53;;;;;;;;;;;22.50;56.70;;;;;;4846989;29;45168;-51
2023/09/05 10:18:19;;;;;;;;;;;22.50;56.70;;;;;;4850731;29;46068;-51
2023/09/05 10:20:46;;;;;;;;;;;22.60;56.80;;;;;;4832501;29;45755;-52
2023/09/05 10:23:11;;;;;;;;;;;22.60;56.80;;;;;;4862864;29;45388;-51
2023/09/05 10:25:37;;;;;;;;;;;22.50;56.70;;;;;;4837968;29;45362;-52
2023/09/05 10:28:03;;;;;;;;;;;22.60;56.80;;;;;;4825938;29;45355;-52
2023/09/05 10:30:28;;;;;;;;;;;22.50;56.80;;;;;;4845496;29;45243;-50
2023/09/05 10:32:54;;;;;;;;;;;22.60;56.80;;;;;;4853086;29;44756;-51
2023/09/05 10:35:20;;;;;;;;;;;22.60;56.70;;;;;;4835906;29;46126;-54
2023/09/05 10:37:48;;;;;;;;;;;22.60;56.80;;;;;;4857774;29;45153;-53
2023/09/05 10:40:14;;;;;;;;;;;22.50;56.70;;;;;;4853529;29;44708;-55
2023/09/05 10:42:48;;;;;;;;;;;22.60;56.80;;;;;;4855231;29;45226;-55
2023/09/05 10:45:22;;;;;;;;;;;22.60;56.80;;;;;;4847418;29;45762;-53
2023/09/05 10:47:49;;;;;;;;;;;22.60;56.80;;;;;;4828790;29;45323;-52
2023/09/05 10:50:19;;;;;;;;;;;22.60;56.80;;;;;;4834508;29;45497;-54
2023/09/05 10:52:49;;;;;;;;;;;22.60;56.80;;;;;;4847199;29;45938;-53
2023/09/05 10:55:32;;;;;;;;;;;22.60;56.80;;;;;;4834380;29;45372;-53
2023/09/05 10:57:58;;;;;;;;;;;22.60;56.80;;;;;;4834001;29;48282;-54
2023/09/05 11:00:26;;;;;;;;;;;22.60;56.80;;;;;;4820746;29;45804;-53
2023/09/05 11:02:53;;;;;;;;;;;22.60;56.80;;;;;;4829543;29;45063;-53
2023/09/05 11:05:19;;;;;;;;;;;22.60;56.80;;;;;;4834046;29;45328;-51
2023/09/05 11:07:45;;;;;;;;;;;22.60;56.80;;;;;;4840471;29;46354;-55
2023/09/05 11:10:11;;;;;;;;;;;22.60;56.80;;;;;;4833861;29;45234;-53
2023/09/05 11:12:38;;;;;;;;;;;22.60;56.80;;;;;;4844555;29;44727;-51
2023/09/05 11:15:08;;;;;;;;;;;22.60;56.80;;;;;;4817928;29;46012;-52
2023/09/05 11:17:35;;;;;;;;;;;22.60;56.80;;;;;;4821080;29;45203;-53
2023/09/05 11:20:04;;;;;;;;;;;22.60;56.80;;;;;;4834328;29;45152;-53
2023/09/05 11:22:30;;;;;;;;;;;22.60;56.80;;;;;;4839074;29;45200;-55
2023/09/05 11:24:58;;;;;;;;;;;22.60;56.80;;;;;;4838662;29;45949;-54
2023/09/05 11:27:28;;;;;;;;;;;22.60;56.80;;;;;;4832550;29;45554;-52
2023/09/05 11:29:55;;;;;;;;;;;22.60;56.80;;;;;;4831263;29;46306;-54
2023/09/05 11:32:26;;;;;;;;;;;22.60;56.80;;;;;;4812888;29;45536;-52
2023/09/05 11:34:52;;;;;;;;;;;22.60;56.80;;;;;;4835567;29;45559;-53
2023/09/05 11:37:19;;;;;;;;;;;22.60;56.80;;;;;;4822410;29;45224;-54
2023/09/05 11:39:46;;;;;;;;;;;22.60;56.80;;;;;;4834041;29;45479;-52
2023/09/05 11:42:15;;;;;;;;;;;22.70;56.90;;;;;;4812222;29;45344;-53
2023/09/05 11:44:40;;;;;;;;;;;22.60;56.80;;;;;;4844145;29;45563;-53
2023/09/05 11:47:06;;;;;;;;;;;22.60;56.80;;;;;;4816034;29;44695;-51
2023/09/05 11:49:32;;;;;;;;;;;22.60;56.80;;;;;;4829664;29;45462;-51
2023/09/05 11:52:00;;;;;;;;;;;22.60;56.90;;;;;;4834851;29;45434;-51
2023/09/05 11:54:26;;;;;;;;;;;22.70;56.90;;;;;;4839301;29;45564;-52
2023/09/05 11:57:04;;;;;;;;;;;22.70;56.90;;;;;;4810039;29;44648;-53
2023/09/05 11:59:59;;;;;;;;;;;22.60;56.80;;;;;;4829683;29;44985;-53
2023/09/05 12:04:55;;;;;;;;;;;22.60;56.90;;;;;;4848525;29;45493;-52
2023/09/05 12:07:24;;;;;;;;;;;22.70;57.00;;;;;;4851707;29;44686;-51
2023/09/05 12:09:49;;;;;;;;;;;22.70;56.90;;;;;;4863987;29;45729;-54
2023/09/05 12:12:17;;;;;;;;;;;22.60;56.90;;;;;;4852085;29;45433;-51
2023/09/05 12:14:46;;;;;;;;;;;22.60;56.90;;;;;;4860967;29;45238;-51
2023/09/05 12:17:16;;;;;;;;;;;22.70;56.90;;;;;;4834753;29;45612;-52
2023/09/05 12:19:42;;;;;;;;;;;22.70;56.90;;;;;;4858090;29;45978;-51
2023/09/05 12:22:07;;;;;;;;;;;22.70;57.00;;;;;;4849756;29;45299;-52
2023/09/05 12:24:33;;;;;;;;;;;22.70;57.00;;;;;;4856829;29;45641;-52
2023/09/05 12:26:59;;;;;;;;;;;22.60;56.90;;;;;;4847243;29;45400;-51
2023/09/05 12:29:38;;;;;;;;;;;22.70;57.00;;;;;;4853554;29;45334;-54
2023/09/05 12:32:05;;;;;;;;;;;22.70;57.00;;;;;;4818593;29;45868;-50
2023/09/05 12:34:31;;;;;;;;;;;22.70;57.00;;;;;;4855292;29;45180;-51
2023/09/05 12:36:56;;;;;;;;;;;22.70;57.00;;;;;;4847696;29;44991;-53
2023/09/05 12:39:22;;;;;;;;;;;22.70;57.60;;;;;;4842815;29;45565;-53
2023/09/05 12:41:47;;;;;;;;;;;22.70;57.00;;;;;;4854582;29;45465;-51
2023/09/05 12:44:12;;;;;;;;;;;22.70;57.00;;;;;;4834704;29;46157;-50
2023/09/05 12:46:38;;;;;;;;;;;22.70;57.00;;;;;;4837467;29;45134;-51
2023/09/05 12:49:04;;;;;;;;;;;22.70;57.00;;;;;;4851842;29;45532;-52
2023/09/05 12:51:30;;;;;;;;;;;22.70;57.00;;;;;;4842756;29;45907;-51
2023/09/05 12:53:56;;;;;;;;;;;22.70;57.00;;;;;;4867769;29;45869;-55
2023/09/05 12:56:23;;;;;;;;;;;22.70;57.00;;;;;;4853045;29;45429;-52
2023/09/05 12:58:49;;;;;;;;;;;22.70;57.60;;;;;;4863372;29;44785;-53
2023/09/05 13:01:14;;;;;;;;;;;22.70;57.00;;;;;;4828036;29;46163;-51
2023/09/05 13:03:40;;;;;;;;;;;22.70;57.00;;;;;;4855450;29;45375;-54
2023/09/05 13:06:05;;;;;;;;;;;22.70;57.10;;;;;;4858040;29;45712;-51
2023/09/05 13:08:32;;;;;;;;;;;22.70;57.00;;;;;;4839182;29;47592;-51
2023/09/05 13:10:57;;;;;;;;;;;22.70;57.10;;;;;;4846822;29;46199;-53
2023/09/05 13:13:23;;;;;;;;;;;22.70;57.10;;;;;;4866698;29;44929;-52
2023/09/05 13:15:48;;;;;;;;;;;22.70;57.10;;;;;;4840586;29;45065;-53
2023/09/05 13:18:15;;;;;;;;;;;22.70;57.00;;;;;;4857369;29;45307;-52
2023/09/05 13:20:41;;;;;;;;;;;22.70;57.10;;;;;;4834663;29;45555;-50
2023/09/05 13:23:06;;;;;;;;;;;22.70;57.10;;;;;;4858802;29;45365;-54
2023/09/05 13:25:32;;;;;;;;;;;22.70;57.10;;;;;;4839758;29;45851;-53
2023/09/05 13:27:58;;;;;;;;;;;22.70;57.10;;;;;;4869565;29;44665;-54
2023/09/05 13:30:24;;;;;;;;;;;22.70;57.10;;;;;;4839549;29;45235;-51
2023/09/05 13:32:51;;;;;;;;;;;22.70;57.10;;;;;;4848419;29;45295;-53
2023/09/05 13:35:16;;;;;;;;;;;22.70;57.10;;;;;;4843717;29;46312;-51
2023/09/05 13:37:42;;;;;;;;;;;22.70;57.10;;;;;;4856711;29;45130;-51
2023/09/05 13:40:08;;;;;;;;;;;22.70;57.10;;;;;;4846920;29;45520;-51
2023/09/05 13:42:33;;;;;;;;;;;22.80;57.10;;;;;;4859576;29;45855;-54
2023/09/05 13:44:59;;;;;;;;;;;22.70;57.10;;;;;;4858382;29;45191;-53
2023/09/05 13:47:26;;;;;;;;;;;22.70;57.10;;;;;;4844795;29;45165;-51
2023/09/05 13:49:52;;;;;;;;;;;22.70;57.10;;;;;;4864209;29;46158;-50
2023/09/05 13:52:18;;;;;;;;;;;22.70;57.10;;;;;;4848981;29;45878;-53
2023/09/05 13:54:43;;;;;;;;;;;22.70;57.10;;;;;;4861352;29;45241;-54
2023/09/05 13:57:08;;;;;;;;;;;22.70;57.10;;;;;;4857979;29;45533;-53
2023/09/05 13:59:34;;;;;;;;;;;22.70;57.10;;;;;;4853159;29;45554;-51
2023/09/05 14:02:00;;;;;;;;;;;22.70;57.10;;;;;;4837851;29;45543;-53
2023/09/05 14:04:26;;;;;;;;;;;22.70;57.20;;;;;;4859269;29;45579;-51
2023/09/05 14:06:52;;;;;;;;;;;22.70;57.20;;;;;;4862105;29;44628;-53
2023/09/05 14:09:17;;;;;;;;;;;22.70;57.20;;;;;;4851612;29;45650;-51
2023/09/05 14:11:43;;;;;;;;;;;22.70;57.10;;;;;;4859153;29;46260;-52
2023/09/05 14:47:42;;;;;;;;;;;22.70;57.30;;;;;;4843498;29;46143;-50
2023/09/05 14:50:07;;;;;;;;;;;22.70;57.30;;;;;;4851611;29;46928;-51
2023/09/05 14:52:33;;;;;;;;;;;22.70;57.30;;;;;;4857992;29;45231;-52
2023/09/05 14:55:09;;;;;;;;;;;22.70;57.30;;;;;;4863642;29;45286;-52
2023/09/05 14:57:35;;;;;;;;;;;22.70;57.30;;;;;;4828807;29;45824;-52
2023/09/05 15:00:01;;;;;;;;;;;22.70;57.30;;;;;;4851465;29;45344;-52
2023/09/05 15:02:26;;;;;;;;;;;22.70;57.30;;;;;;4828271;29;45658;-51
2023/09/05 15:04:52;;;;;;;;;;;22.70;57.30;;;;;;4859416;29;46847;-52
2023/09/05 15:07:18;;;;;;;;;;;22.70;57.30;;;;;;4839998;29;45234;-57
2023/09/05 15:09:43;;;;;;;;;;;22.70;57.30;;;;;;4858673;29;44933;-54
2023/09/05 15:12:10;;;;;;;;;;;22.70;57.30;;;;;;4853145;29;45249;-52
2023/09/05 15:14:37;;;;;;;;;;;22.80;57.30;;;;;;4872436;29;45101;-54
2023/09/05 15:17:04;;;;;;;;;;;22.70;57.30;;;;;;4842654;29;45369;-52
2023/09/05 15:19:29;;;;;;;;;;;22.70;57.30;;;;;;4855615;29;45399;-50
2023/09/05 15:21:55;;;;;;;;;;;22.70;57.30;;;;;;4848616;29;45428;-52
2023/09/05 15:24:21;;;;;;;;;;;22.70;57.30;;;;;;4853248;29;44926;-53
2023/09/05 15:26:46;;;;;;;;;;;22.80;57.40;;;;;;4853469;29;45229;-51
2023/09/05 15:29:14;;;;;;;;;;;22.70;57.30;;;;;;4835137;29;45305;-53
2023/09/05 15:31:39;;;;;;;;;;;22.80;57.30;;;;;;4846231;29;45269;-49
2023/09/05 15:34:05;;;;;;;;;;;22.70;57.30;;;;;;4851253;29;45070;-51
2023/09/05 15:36:31;;;;;;;;;;;22.70;57.30;;;;;;4842951;29;46094;-51
2023/09/05 15:38:57;;;;;;;;;;;22.70;57.90;;;;;;4865883;29;46871;-52
2023/09/05 15:41:23;;;;;;;;;;;22.70;57.30;;;;;;4844193;29;45137;-50
2023/09/05 15:43:48;;;;;;;;;;;22.80;57.40;;;;;;4870918;29;45236;-50
2023/09/05 15:46:14;;;;;;;;;;;22.80;57.30;;;;;;4840799;29;46222;-50
2023/09/05 15:48:40;;;;;;;;;;;22.80;57.30;;;;;;4850279;29;45752;-50
2023/09/05 15:51:06;;;;;;;;;;;22.80;57.40;;;;;;4828071;29;45455;-50
2023/09/05 15:53:32;;;;;;;;;;;22.80;57.40;;;;;;4851757;29;47125;-53
2023/09/05 15:55:57;;;;;;;;;;;22.80;57.40;;;;;;4825798;29;46867;-53
2023/09/05 15:58:24;;;;;;;;;;;22.80;57.40;;;;;;4843827;29;46323;-50
2023/09/05 16:00:50;;;;;;;;;;;22.80;57.90;;;;;;4836213;29;45148;-53
2023/09/05 16:03:19;;;;;;;;;;;22.80;57.40;;;;;;4823442;29;46475;-53
2023/09/05 16:05:45;;;;;;;;;;;22.80;57.40;;;;;;4849149;29;45365;-53
2023/09/05 16:08:11;;;;;;;;;;;22.80;57.40;;;;;;4847634;29;45962;-51
2023/09/05 16:10:36;;;;;;;;;;;22.80;57.40;;;;;;4856758;29;45336;-52
2023/09/05 16:13:04;;;;;;;;;;;22.80;57.40;;;;;;4853535;29;45352;-50
2023/09/05 16:15:30;;;;;;;;;;;22.80;57.30;;;;;;4838161;29;46051;-50
2023/09/05 16:17:55;;;;;;;;;;;22.80;57.30;;;;;;4828490;29;45170;-51
2023/09/05 16:20:21;;;;;;;;;;;22.80;57.40;;;;;;4833504;29;45321;-55
2023/09/05 16:22:47;;;;;;;;;;;22.80;57.40;;;;;;4827116;29;45442;-50
2023/09/05 16:25:13;;;;;;;;;;;22.80;57.40;;;;;;4835305;29;45274;-52
2023/09/05 16:27:38;;;;;;;;;;;22.80;57.40;;;;;;4842184;29;44967;-50
2023/09/05 16:30:07;;;;;;;;;;;22.80;57.40;;;;;;4839566;29;45229;-52
2023/09/05 16:32:34;;;;;;;;;;;22.80;57.40;;;;;;4801633;29;46399;-54
2023/09/05 16:35:00;;;;;;;;;;;22.80;57.40;;;;;;4843153;29;45236;-54
2023/09/05 16:37:25;;;;;;;;;;;22.80;57.40;;;;;;4826536;29;45420;-53
2023/09/05 16:39:51;;;;;;;;;;;22.80;57.40;;;;;;4830959;29;45417;-51
2023/09/05 16:42:17;;;;;;;;;;;22.80;57.40;;;;;;4811800;29;45371;-53
2023/09/05 16:44:43;;;;;;;;;;;22.80;58.00;;;;;;4831302;29;46484;-50
2023/09/05 16:47:08;;;;;;;;;;;22.80;57.40;;;;;;4821986;29;45408;-50
2023/09/05 16:49:35;;;;;;;;;;;22.80;57.40;;;;;;4835498;29;45927;-53
2023/09/05 16:52:00;;;;;;;;;;;22.80;57.40;;;;;;4833218;29;44991;-50
2023/09/05 16:54:26;;;;;;;;;;;22.80;57.40;;;;;;4835135;29;45847;-50
2023/09/05 16:56:52;;;;;;;;;;;22.90;57.40;;;;;;4831985;29;46351;-50
2023/09/05 16:59:17;;;;;;;;;;;22.80;57.40;;;;;;4842859;29;45383;-50
2023/09/05 17:01:43;;;;;;;;;;;22.80;57.40;;;;;;4822761;29;45655;-50
2023/09/05 17:04:09;;;;;;;;;;;22.80;57.40;;;;;;4833358;29;45889;-49
2023/09/05 17:06:36;;;;;;;;;;;22.80;57.40;;;;;;4822850;29;45253;-54
2023/09/05 17:09:04;;;;;;;;;;;22.90;57.40;;;;;;4846119;29;45137;-51
2023/09/05 17:11:31;;;;;;;;;;;22.80;57.40;;;;;;4834870;29;45293;-50
2023/09/05 17:13:57;;;;;;;;;;;22.80;57.40;;;;;;4851299;29;45511;-50
2023/09/05 17:16:24;;;;;;;;;;;22.80;57.40;;;;;;4823688;29;45960;-50
2023/09/05 17:18:51;;;;;;;;;;;22.80;57.40;;;;;;4840682;29;45118;-54
2023/09/05 17:21:18;;;;;;;;;;;22.80;57.40;;;;;;4834913;29;44864;-50
2023/09/05 17:23:44;;;;;;;;;;;22.80;57.40;;;;;;4839983;29;45380;-51
2023/09/05 17:26:12;;;;;;;;;;;22.90;57.50;;;;;;4835482;29;45842;-54
2023/09/05 17:28:39;;;;;;;;;;;22.80;57.40;;;;;;4842407;29;45258;-50
2023/09/05 17:31:08;;;;;;;;;;;22.90;57.40;;;;;;4826239;29;45792;-53
2023/09/05 17:33:37;;;;;;;;;;;22.80;57.40;;;;;;4834092;29;46372;-50
2023/09/05 17:36:14;;;;;;;;;;;22.90;57.50;;;;;;4829370;29;47913;-52
2023/09/05 17:38:50;;;;;;;;;;;22.80;57.40;;;;;;4842547;29;44970;-50
2023/09/05 17:41:19;;;;;;;;;;;22.90;57.50;;;;;;4836550;29;45911;-51
2023/09/05 17:43:46;;;;;;;;;;;22.80;57.40;;;;;;4845366;29;46235;-54
2023/09/05 17:46:12;;;;;;;;;;;22.90;57.50;;;;;;4827789;29;45783;-52
2023/09/05 17:48:38;;;;;;;;;;;22.80;57.40;;;;;;4841272;29;45280;-54
2023/09/05 17:51:05;;;;;;;;;;;22.90;57.50;;;;;;4825593;29;46157;-49
2023/09/05 17:53:32;;;;;;;;;;;22.90;57.50;;;;;;4835966;29;47393;-52
2023/09/05 17:55:58;;;;;;;;;;;22.90;57.50;;;;;;4836565;29;44642;-51
2023/09/05 17:58:24;;;;;;;;;;;22.90;57.50;;;;;;4842060;29;45997;-50
2023/09/05 18:00:52;;;;;;;;;;;22.90;57.50;;;;;;4826798;29;45971;-51
2023/09/05 18:03:18;;;;;;;;;;;22.90;57.50;;;;;;4837000;28;46275;-51
2023/09/05 18:05:48;;;;;;;;;;;22.90;58.00;;;;;;4830180;29;45295;-53
2023/09/05 18:08:16;;;;;;;;;;;22.90;57.50;;;;;;4832911;29;44923;-50